sensor_id;sensor_type;location;lat;lon;timestamp;pressure;altitude;pressure_sealevel;temperature;humidity
25664;BME280;13522;50.018;20.014;2023-07-30T00:00:33;98154.63;;;20.11;100.00
25664;BME280;13522;50.018;20.014;2023-07-30T00:03:47;98150.71;;;20.07;100.00
25664;BME280;13522;50.018;20.014;2023-07-30T00:07:00;98149.78;;;19.95;100.00
25664;BME280;13522;50.018;20.014;2023-07-30T00:10:13;98155.24;;;19.81;100.00
25664;BME280;13522;50.018;20.014;2023-07-30T00:13:25;98154.05;;;19.71;100.00
25664;BME280;13522;50.018;20.014;2023-07-30T00:16:38;98158.69;;;19.57;100.00
25664;BME280;13522;50.018;20.014;2023-07-30T00:19:50;98152.50;;;19.57;100.00
25664;BME280;13522;50.018;20.014;2023-07-30T00:23:03;98145.22;;;19.57;100.00
25664;BME280;13522;50.018;20.014;2023-07-30T00:26:15;98146.42;;;19.68;100.00
25664;BME280;13522;50.018;20.014;2023-07-30T00:29:30;98137.02;;;19.77;100.00
25664;BME280;13522;50.018;20.014;2023-07-30T00:32:42;98142.38;;;19.83;100.00
25664;BME280;13522;50.018;20.014;2023-07-30T00:35:55;98130.95;;;19.88;100.00
25664;BME280;13522;50.018;20.014;2023-07-30T00:39:08;98131.38;;;19.85;100.00
25664;BME280;13522;50.018;20.014;2023-07-30T00:42:21;98126.69;;;19.74;100.00
25664;BME280;13522;50.018;20.014;2023-07-30T00:45:33;98130.89;;;19.63;100.00
25664;BME280;13522;50.018;20.014;2023-07-30T00:48:46;98145.42;;;19.62;100.00
25664;BME280;13522;50.018;20.014;2023-07-30T00:51:59;98153.91;;;19.59;100.00
25664;BME280;13522;50.018;20.014;2023-07-30T00:55:12;98153.97;;;19.53;100.00
25664;BME280;13522;50.018;20.014;2023-07-30T00:58:25;98154.38;;;19.50;100.00
25664;BME280;13522;50.018;20.014;2023-07-30T01:01:39;98155.85;;;19.46;100.00
25664;BME280;13522;50.018;20.014;2023-07-30T01:04:54;98157.15;;;19.37;100.00
25664;BME280;13522;50.018;20.014;2023-07-30T01:08:06;98160.03;;;19.35;100.00
25664;BME280;13522;50.018;20.014;2023-07-30T01:11:21;98162.74;;;19.29;100.00
25664;BME280;13522;50.018;20.014;2023-07-30T01:14:34;98160.45;;;19.26;100.00
25664;BME280;13522;50.018;20.014;2023-07-30T01:17:48;98165.05;;;19.25;100.00
25664;BME280;13522;50.018;20.014;2023-07-30T01:21:02;98161.69;;;19.30;100.00
25664;BME280;13522;50.018;20.014;2023-07-30T01:24:14;98155.47;;;19.42;100.00
25664;BME280;13522;50.018;20.014;2023-07-30T01:27:30;98161.22;;;19.52;100.00
25664;BME280;13522;50.018;20.014;2023-07-30T01:30:46;98163.05;;;19.58;100.00
25664;BME280;13522;50.018;20.014;2023-07-30T01:34:03;98161.14;;;19.65;100.00
25664;BME280;13522;50.018;20.014;2023-07-30T01:37:18;98158.64;;;19.70;100.00
25664;BME280;13522;50.018;20.014;2023-07-30T01:40:31;98154.63;;;19.79;100.00
25664;BME280;13522;50.018;20.014;2023-07-30T01:43:44;98154.38;;;19.87;100.00
25664;BME280;13522;50.018;20.014;2023-07-30T01:46:56;98150.81;;;19.94;100.00
25664;BME280;13522;50.018;20.014;2023-07-30T01:50:10;98146.06;;;19.89;100.00
25664;BME280;13522;50.018;20.014;2023-07-30T01:53:22;98156.05;;;19.88;100.00
25664;BME280;13522;50.018;20.014;2023-07-30T01:56:35;98148.98;;;19.87;100.00
25664;BME280;13522;50.018;20.014;2023-07-30T01:59:47;98146.74;;;19.84;100.00
25664;BME280;13522;50.018;20.014;2023-07-30T02:03:00;98153.16;;;19.83;100.00
25664;BME280;13522;50.018;20.014;2023-07-30T02:06:13;98154.63;;;19.79;100.00
25664;BME280;13522;50.018;20.014;2023-07-30T02:09:25;98161.08;;;19.78;100.00
25664;BME280;13522;50.018;20.014;2023-07-30T02:12:39;98172.27;;;19.75;100.00
25664;BME280;13522;50.018;20.014;2023-07-30T02:15:51;98168.97;;;19.73;100.00
25664;BME280;13522;50.018;20.014;2023-07-30T02:19:04;98189.08;;;19.71;100.00
25664;BME280;13522;50.018;20.014;2023-07-30T02:22:19;98175.83;;;19.69;100.00
25664;BME280;13522;50.018;20.014;2023-07-30T02:25:31;98161.97;;;19.66;100.00
25664;BME280;13522;50.018;20.014;2023-07-30T02:28:43;98168.61;;;19.63;100.00
25664;BME280;13522;50.018;20.014;2023-07-30T02:31:55;98173.38;;;19.61;100.00
25664;BME280;13522;50.018;20.014;2023-07-30T02:35:09;98163.05;;;19.58;100.00
25664;BME280;13522;50.018;20.014;2023-07-30T02:38:21;98174.24;;;19.55;100.00
25664;BME280;13522;50.018;20.014;2023-07-30T02:41:33;98180.30;;;19.51;100.00
25664;BME280;13522;50.018;20.014;2023-07-30T02:44:46;98179.88;;;19.47;100.00
25664;BME280;13522;50.018;20.014;2023-07-30T02:47:58;98188.61;;;19.43;100.00
25664;BME280;13522;50.018;20.014;2023-07-30T02:51:10;98193.58;;;19.39;100.00
25664;BME280;13522;50.018;20.014;2023-07-30T02:54:23;98197.73;;;19.35;100.00
25664;BME280;13522;50.018;20.014;2023-07-30T02:57:35;98194.84;;;19.30;100.00
25664;BME280;13522;50.018;20.014;2023-07-30T03:00:47;98200.05;;;19.25;100.00
25664;BME280;13522;50.018;20.014;2023-07-30T03:04:00;98202.31;;;19.22;100.00
25664;BME280;13522;50.018;20.014;2023-07-30T03:07:12;98204.60;;;19.18;100.00
25664;BME280;13522;50.018;20.014;2023-07-30T03:10:26;98202.34;;;19.15;100.00
25664;BME280;13522;50.018;20.014;2023-07-30T03:13:38;98195.30;;;19.14;100.00
25664;BME280;13522;50.018;20.014;2023-07-30T03:16:51;98210.83;;;19.12;100.00
25664;BME280;13522;50.018;20.014;2023-07-30T03:20:05;98211.27;;;19.09;100.00
25664;BME280;13522;50.018;20.014;2023-07-30T03:23:19;98205.89;;;19.09;100.00
25664;BME280;13522;50.018;20.014;2023-07-30T03:26:31;98199.88;;;19.07;100.00
25664;BME280;13522;50.018;20.014;2023-07-30T03:29:44;98211.67;;;19.06;100.00
25664;BME280;13522;50.018;20.014;2023-07-30T03:32:56;98226.19;;;19.05;100.00
25664;BME280;13522;50.018;20.014;2023-07-30T03:36:09;98224.73;;;19.02;100.00
25664;BME280;13522;50.018;20.014;2023-07-30T03:39:21;98218.52;;;19.02;100.00
25664;BME280;13522;50.018;20.014;2023-07-30T03:42:34;98229.90;;;19.04;100.00
25664;BME280;13522;50.018;20.014;2023-07-30T03:45:46;98233.02;;;19.01;100.00
25664;BME280;13522;50.018;20.014;2023-07-30T03:48:58;98235.72;;;19.01;100.00
25664;BME280;13522;50.018;20.014;2023-07-30T03:52:12;98245.42;;;19.02;100.00
25664;BME280;13522;50.018;20.014;2023-07-30T03:55:28;98247.28;;;19.01;100.00
25664;BME280;13522;50.018;20.014;2023-07-30T03:58:41;98250.59;;;19.03;100.00
25664;BME280;13522;50.018;20.014;2023-07-30T04:01:53;98249.17;;;19.01;100.00
25664;BME280;13522;50.018;20.014;2023-07-30T04:05:07;98251.86;;;19.01;100.00
25664;BME280;13522;50.018;20.014;2023-07-30T04:08:19;98251.65;;;18.96;100.00
25664;BME280;13522;50.018;20.014;2023-07-30T04:11:31;98252.70;;;18.95;100.00
25664;BME280;13522;50.018;20.014;2023-07-30T04:14:44;98257.24;;;18.94;100.00
25664;BME280;13522;50.018;20.014;2023-07-30T04:17:57;98258.30;;;18.93;100.00
25664;BME280;13522;50.018;20.014;2023-07-30T04:21:10;98259.10;;;18.94;100.00
25664;BME280;13522;50.018;20.014;2023-07-30T04:24:23;98264.92;;;18.97;100.00
25664;BME280;13522;50.018;20.014;2023-07-30T04:27:36;98264.92;;;18.97;100.00
25664;BME280;13522;50.018;20.014;2023-07-30T04:30:48;98266.77;;;18.97;100.00
25664;BME280;13522;50.018;20.014;2023-07-30T04:34:01;98276.89;;;19.01;100.00
25664;BME280;13522;50.018;20.014;2023-07-30T04:37:14;98284.35;;;19.06;100.00
25664;BME280;13522;50.018;20.014;2023-07-30T04:40:27;98299.45;;;19.14;100.00
25664;BME280;13522;50.018;20.014;2023-07-30T04:43:39;98303.82;;;19.21;100.00
25664;BME280;13522;50.018;20.014;2023-07-30T04:46:52;98303.82;;;19.21;100.00
25664;BME280;13522;50.018;20.014;2023-07-30T04:50:06;98297.59;;;19.27;100.00
25664;BME280;13522;50.018;20.014;2023-07-30T04:53:19;98298.43;;;19.34;100.00
25664;BME280;13522;50.018;20.014;2023-07-30T04:56:31;98297.59;;;19.40;100.00
25664;BME280;13522;50.018;20.014;2023-07-30T04:59:43;98301.92;;;19.41;100.00
25664;BME280;13522;50.018;20.014;2023-07-30T05:02:56;98310.63;;;19.43;100.00
25664;BME280;13522;50.018;20.014;2023-07-30T05:06:09;98310.22;;;19.40;100.00
25664;BME280;13522;50.018;20.014;2023-07-30T05:09:21;98303.77;;;19.47;100.00
25664;BME280;13522;50.018;20.014;2023-07-30T05:12:33;98302.75;;;19.48;100.00
25664;BME280;13522;50.018;20.014;2023-07-30T05:15:46;98312.06;;;19.52;100.00
25664;BME280;13522;50.018;20.014;2023-07-30T05:18:58;98317.45;;;19.52;100.00
25664;BME280;13522;50.018;20.014;2023-07-30T05:22:11;98325.31;;;19.60;100.00
25664;BME280;13522;50.018;20.014;2023-07-30T05:25:24;98323.41;;;19.67;100.00
25664;BME280;13522;50.018;20.014;2023-07-30T05:28:36;98317.17;;;19.73;100.00
25664;BME280;13522;50.018;20.014;2023-07-30T05:31:48;98321.92;;;19.84;100.00
25664;BME280;13522;50.018;20.014;2023-07-30T05:35:01;98327.08;;;19.93;100.00
25664;BME280;13522;50.018;20.014;2023-07-30T05:38:13;98325.34;;;20.05;100.00
25664;BME280;13522;50.018;20.014;2023-07-30T05:41:26;98319.69;;;20.26;100.00
25664;BME280;13522;50.018;20.014;2023-07-30T05:44:38;98309.52;;;20.28;100.00
25664;BME280;13522;50.018;20.014;2023-07-30T05:47:51;98314.05;;;20.34;100.00
25664;BME280;13522;50.018;20.014;2023-07-30T05:51:03;98319.86;;;20.31;100.00
25664;BME280;13522;50.018;20.014;2023-07-30T05:54:16;98315.44;;;20.43;100.00
25664;BME280;13522;50.018;20.014;2023-07-30T05:57:28;98320.34;;;20.52;100.00
25664;BME280;13522;50.018;20.014;2023-07-30T06:00:41;98314.47;;;20.62;100.00
25664;BME280;13522;50.018;20.014;2023-07-30T06:03:53;98324.20;;;20.69;98.77
25664;BME280;13522;50.018;20.014;2023-07-30T06:07:06;98317.36;;;20.67;98.60
25664;BME280;13522;50.018;20.014;2023-07-30T06:10:18;98311.47;;;20.77;98.43
25664;BME280;13522;50.018;20.014;2023-07-30T06:13:31;98317.97;;;20.69;97.01
25664;BME280;13522;50.018;20.014;2023-07-30T06:16:43;98310.78;;;20.88;97.98
25664;BME280;13522;50.018;20.014;2023-07-30T06:19:55;98315.45;;;20.99;97.45
25664;BME280;13522;50.018;20.014;2023-07-30T06:23:08;98323.27;;;21.13;96.74
25664;BME280;13522;50.018;20.014;2023-07-30T06:26:21;98313.30;;;21.32;97.31
25664;BME280;13522;50.018;20.014;2023-07-30T06:29:34;98319.71;;;21.55;96.48
25664;BME280;13522;50.018;20.014;2023-07-30T06:32:46;98319.48;;;21.75;94.22
25664;BME280;13522;50.018;20.014;2023-07-30T06:35:59;98317.78;;;21.99;93.09
25664;BME280;13522;50.018;20.014;2023-07-30T06:39:11;98315.81;;;22.24;91.33
25664;BME280;13522;50.018;20.014;2023-07-30T06:42:24;98317.73;;;22.35;88.15
25664;BME280;13522;50.018;20.014;2023-07-30T06:45:37;98316.38;;;22.44;85.71
25664;BME280;13522;50.018;20.014;2023-07-30T06:48:49;98314.45;;;22.63;85.98
25664;BME280;13522;50.018;20.014;2023-07-30T06:52:02;98308.74;;;22.94;86.51
25664;BME280;13522;50.018;20.014;2023-07-30T06:55:15;98314.20;;;23.28;87.28
25664;BME280;13522;50.018;20.014;2023-07-30T06:58:27;98313.86;;;23.60;85.70
25664;BME280;13522;50.018;20.014;2023-07-30T07:01:41;98319.00;;;23.96;83.25
25664;BME280;13522;50.018;20.014;2023-07-30T07:04:55;98307.52;;;24.17;78.68
25664;BME280;13522;50.018;20.014;2023-07-30T07:08:07;98301.16;;;24.68;77.52
25664;BME280;13522;50.018;20.014;2023-07-30T07:11:20;98301.88;;;24.91;78.21
25664;BME280;13522;50.018;20.014;2023-07-30T07:14:32;98310.33;;;25.12;77.06
25664;BME280;13522;50.018;20.014;2023-07-30T07:17:45;98312.25;;;25.11;77.32
25664;BME280;13522;50.018;20.014;2023-07-30T07:20:57;98314.95;;;25.28;74.81
25664;BME280;13522;50.018;20.014;2023-07-30T07:24:10;98313.16;;;25.33;74.59
25664;BME280;13522;50.018;20.014;2023-07-30T07:27:24;98318.09;;;25.53;74.00
25664;BME280;13522;50.018;20.014;2023-07-30T07:30:37;98312.23;;;25.61;73.81
25664;BME280;13522;50.018;20.014;2023-07-30T07:33:50;98321.45;;;25.60;73.67
25664;BME280;13522;50.018;20.014;2023-07-30T07:37:03;98323.94;;;25.83;73.67
25664;BME280;13522;50.018;20.014;2023-07-30T07:40:17;98325.02;;;25.27;73.74
25664;BME280;13522;50.018;20.014;2023-07-30T07:43:30;98322.30;;;25.11;75.34
25664;BME280;13522;50.018;20.014;2023-07-30T07:46:42;98318.23;;;25.30;75.69
25664;BME280;13522;50.018;20.014;2023-07-30T07:49:54;98317.73;;;25.66;79.32
25664;BME280;13522;50.018;20.014;2023-07-30T07:53:07;98305.44;;;25.63;75.98
25664;BME280;13522;50.018;20.014;2023-07-30T07:56:19;98312.51;;;25.43;75.02
25664;BME280;13522;50.018;20.014;2023-07-30T07:59:32;98311.33;;;25.39;74.67
25664;BME280;13522;50.018;20.014;2023-07-30T08:02:45;98304.16;;;25.33;74.54
25664;BME280;13522;50.018;20.014;2023-07-30T08:05:57;98302.76;;;25.30;73.50
25664;BME280;13522;50.018;20.014;2023-07-30T08:09:10;98300.85;;;25.86;76.28
25664;BME280;13522;50.018;20.014;2023-07-30T08:12:22;98306.84;;;26.52;74.00
25664;BME280;13522;50.018;20.014;2023-07-30T08:15:35;98315.18;;;26.68;72.90
25664;BME280;13522;50.018;20.014;2023-07-30T08:18:48;98312.09;;;26.59;70.94
25664;BME280;13522;50.018;20.014;2023-07-30T08:22:01;98318.19;;;26.44;71.70
25664;BME280;13522;50.018;20.014;2023-07-30T08:25:14;98313.53;;;26.40;73.95
25664;BME280;13522;50.018;20.014;2023-07-30T08:28:26;98306.44;;;26.66;72.71
25664;BME280;13522;50.018;20.014;2023-07-30T08:31:39;98308.30;;;26.87;73.25
25664;BME280;13522;50.018;20.014;2023-07-30T08:34:53;98293.53;;;27.14;72.12
25664;BME280;13522;50.018;20.014;2023-07-30T08:38:05;98303.05;;;27.12;68.11
25664;BME280;13522;50.018;20.014;2023-07-30T08:41:18;98307.63;;;27.33;67.90
25664;BME280;13522;50.018;20.014;2023-07-30T08:44:30;98309.94;;;27.51;70.02
25664;BME280;13522;50.018;20.014;2023-07-30T08:47:44;98307.36;;;27.34;70.45
25664;BME280;13522;50.018;20.014;2023-07-30T08:50:59;98311.23;;;27.12;69.24
25664;BME280;13522;50.018;20.014;2023-07-30T08:54:13;98312.89;;;27.13;69.88
25664;BME280;13522;50.018;20.014;2023-07-30T08:57:27;98313.95;;;27.43;71.44
25664;BME280;13522;50.018;20.014;2023-07-30T09:00:42;98321.83;;;27.35;68.46
25664;BME280;13522;50.018;20.014;2023-07-30T09:03:59;98324.36;;;26.83;70.23
25664;BME280;13522;50.018;20.014;2023-07-30T09:07:12;98329.27;;;26.59;70.62
25664;BME280;13522;50.018;20.014;2023-07-30T09:10:27;98332.69;;;26.72;71.07
25664;BME280;13522;50.018;20.014;2023-07-30T09:13:40;98328.77;;;26.89;72.48
25664;BME280;13522;50.018;20.014;2023-07-30T09:16:57;98328.48;;;26.86;70.28
25664;BME280;13522;50.018;20.014;2023-07-30T09:20:08;98323.72;;;27.34;70.28
25664;BME280;13522;50.018;20.014;2023-07-30T09:23:21;98320.22;;;27.39;68.98
25664;BME280;13522;50.018;20.014;2023-07-30T09:26:44;98322.38;;;27.37;71.98
25664;BME280;13522;50.018;20.014;2023-07-30T09:29:58;98323.81;;;27.50;68.86
25664;BME280;13522;50.018;20.014;2023-07-30T09:33:14;98321.18;;;27.28;67.70
25664;BME280;13522;50.018;20.014;2023-07-30T09:36:32;98316.12;;;27.41;68.98
25664;BME280;13522;50.018;20.014;2023-07-30T09:39:45;98309.48;;;26.96;68.53
25664;BME280;13522;50.018;20.014;2023-07-30T09:42:59;98310.38;;;27.38;67.14
25664;BME280;13522;50.018;20.014;2023-07-30T09:46:14;98308.88;;;27.57;68.90
25664;BME280;13522;50.018;20.014;2023-07-30T09:49:27;98306.72;;;27.59;66.46
25664;BME280;13522;50.018;20.014;2023-07-30T09:52:40;98305.12;;;27.68;66.64
25664;BME280;13522;50.018;20.014;2023-07-30T09:55:53;98304.98;;;27.48;70.62
25664;BME280;13522;50.018;20.014;2023-07-30T09:59:06;98304.02;;;27.27;68.54
25664;BME280;13522;50.018;20.014;2023-07-30T10:02:20;98303.88;;;27.44;67.13
25664;BME280;13522;50.018;20.014;2023-07-30T10:05:35;98298.53;;;27.59;69.31
25664;BME280;13522;50.018;20.014;2023-07-30T10:08:49;98291.80;;;27.77;66.27
25664;BME280;13522;50.018;20.014;2023-07-30T10:12:05;98299.31;;;27.55;66.45
25664;BME280;13522;50.018;20.014;2023-07-30T10:15:21;98296.61;;;28.06;64.06
25664;BME280;13522;50.018;20.014;2023-07-30T10:18:39;98292.95;;;28.58;65.79
25664;BME280;13522;50.018;20.014;2023-07-30T10:21:53;98289.17;;;28.84;61.07
25664;BME280;13522;50.018;20.014;2023-07-30T10:25:07;98299.06;;;28.13;62.73
25664;BME280;13522;50.018;20.014;2023-07-30T10:28:35;98284.70;;;28.53;62.68
25664;BME280;13522;50.018;20.014;2023-07-30T10:31:54;98287.52;;;28.68;62.20
25664;BME280;13522;50.018;20.014;2023-07-30T10:35:08;98287.52;;;28.68;60.38
25664;BME280;13522;50.018;20.014;2023-07-30T10:38:22;98288.60;;;28.77;62.68
25664;BME280;13522;50.018;20.014;2023-07-30T10:41:38;98290.75;;;28.55;63.04
25664;BME280;13522;50.018;20.014;2023-07-30T10:44:51;98284.62;;;28.12;61.51
25664;BME280;13522;50.018;20.014;2023-07-30T10:48:07;98283.30;;;28.35;61.69
25664;BME280;13522;50.018;20.014;2023-07-30T10:51:21;98282.67;;;28.08;59.53
25664;BME280;13522;50.018;20.014;2023-07-30T10:54:36;98293.36;;;28.14;65.70
25664;BME280;13522;50.018;20.014;2023-07-30T10:57:49;98286.39;;;27.87;60.29
25664;BME280;13522;50.018;20.014;2023-07-30T11:01:05;98289.86;;;27.72;61.62
25664;BME280;13522;50.018;20.014;2023-07-30T11:04:19;98276.20;;;27.67;61.28
25664;BME280;13522;50.018;20.014;2023-07-30T11:07:32;98283.45;;;27.52;62.58
25664;BME280;13522;50.018;20.014;2023-07-30T11:10:46;98282.11;;;27.54;60.90
25664;BME280;13522;50.018;20.014;2023-07-30T11:13:58;98280.44;;;27.48;61.86
25664;BME280;13522;50.018;20.014;2023-07-30T11:17:11;98275.47;;;27.40;61.08
25664;BME280;13522;50.018;20.014;2023-07-30T11:20:27;98285.84;;;27.06;62.87
25664;BME280;13522;50.018;20.014;2023-07-30T11:23:40;98282.14;;;27.22;62.56
25664;BME280;13522;50.018;20.014;2023-07-30T11:27:00;98266.13;;;27.31;62.62
25664;BME280;13522;50.018;20.014;2023-07-30T11:30:13;98278.78;;;27.10;62.62
25664;BME280;13522;50.018;20.014;2023-07-30T11:33:26;98276.80;;;27.01;62.71
25664;BME280;13522;50.018;20.014;2023-07-30T11:36:40;98268.81;;;26.89;62.69
25664;BME280;13522;50.018;20.014;2023-07-30T11:39:52;98268.72;;;26.79;64.84
25664;BME280;13522;50.018;20.014;2023-07-30T11:43:06;98264.98;;;26.90;64.91
25664;BME280;13522;50.018;20.014;2023-07-30T11:46:19;98265.23;;;26.84;63.10
25664;BME280;13522;50.018;20.014;2023-07-30T11:49:32;98275.81;;;26.53;63.31
25664;BME280;13522;50.018;20.014;2023-07-30T11:52:55;98279.19;;;26.39;65.83
25664;BME280;13522;50.018;20.014;2023-07-30T11:56:08;98271.58;;;26.41;67.05
25664;BME280;13522;50.018;20.014;2023-07-30T11:59:28;98275.09;;;26.36;67.19
25664;BME280;13522;50.018;20.014;2023-07-30T12:02:43;98270.34;;;26.27;64.87
25664;BME280;13522;50.018;20.014;2023-07-30T12:05:56;98269.92;;;26.13;65.60
25664;BME280;13522;50.018;20.014;2023-07-30T12:09:13;98274.34;;;26.19;67.30
25664;BME280;13522;50.018;20.014;2023-07-30T12:12:28;98279.79;;;26.19;68.52
25664;BME280;13522;50.018;20.014;2023-07-30T12:15:40;98273.28;;;26.20;69.15
25664;BME280;13522;50.018;20.014;2023-07-30T12:18:57;98271.36;;;26.21;67.42
25664;BME280;13522;50.018;20.014;2023-07-30T12:22:10;98265.68;;;26.01;65.70
25664;BME280;13522;50.018;20.014;2023-07-30T12:25:22;98267.57;;;26.00;67.20
25664;BME280;13522;50.018;20.014;2023-07-30T12:28:35;98257.44;;;25.96;66.85
25664;BME280;13522;50.018;20.014;2023-07-30T12:31:48;98263.63;;;25.91;67.25
25664;BME280;13522;50.018;20.014;2023-07-30T12:35:03;98269.08;;;25.91;66.76
25664;BME280;13522;50.018;20.014;2023-07-30T12:38:16;98265.48;;;25.86;67.28
25664;BME280;13522;50.018;20.014;2023-07-30T12:41:28;98260.22;;;25.79;68.68
25664;BME280;13522;50.018;20.014;2023-07-30T12:44:42;98249.72;;;25.66;65.75
25664;BME280;13522;50.018;20.014;2023-07-30T12:47:55;98256.83;;;25.67;68.13
25664;BME280;13522;50.018;20.014;2023-07-30T12:51:07;98255.11;;;25.61;66.41
25664;BME280;13522;50.018;20.014;2023-07-30T12:54:20;98250.98;;;25.58;66.97
25664;BME280;13522;50.018;20.014;2023-07-30T12:57:35;98255.86;;;25.56;67.36
25664;BME280;13522;50.018;20.014;2023-07-30T13:00:48;98255.02;;;25.56;67.19
25664;BME280;13522;50.018;20.014;2023-07-30T13:04:01;98254.28;;;25.60;66.93
25664;BME280;13522;50.018;20.014;2023-07-30T13:07:14;98251.38;;;25.67;66.22
25664;BME280;13522;50.018;20.014;2023-07-30T13:10:27;98240.60;;;25.77;65.66
25664;BME280;13522;50.018;20.014;2023-07-30T13:13:41;98234.98;;;25.84;63.67
25664;BME280;13522;50.018;20.014;2023-07-30T13:16:53;98244.58;;;25.91;65.09
25664;BME280;13522;50.018;20.014;2023-07-30T13:20:08;98240.84;;;25.97;66.18
25664;BME280;13522;50.018;20.014;2023-07-30T13:23:23;98245.41;;;25.92;64.56
25664;BME280;13522;50.018;20.014;2023-07-30T13:26:38;98240.67;;;25.82;64.80
25664;BME280;13522;50.018;20.014;2023-07-30T13:29:50;98237.27;;;25.70;65.25
25664;BME280;13522;50.018;20.014;2023-07-30T13:33:03;98235.86;;;25.67;65.94
25664;BME280;13522;50.018;20.014;2023-07-30T13:36:16;98231.33;;;25.73;66.52
25664;BME280;13522;50.018;20.014;2023-07-30T13:39:28;98243.09;;;25.78;70.62
25664;BME280;13522;50.018;20.014;2023-07-30T13:42:41;98229.20;;;26.02;67.20
25664;BME280;13522;50.018;20.014;2023-07-30T13:45:53;98225.91;;;26.21;67.55
25664;BME280;13522;50.018;20.014;2023-07-30T13:49:06;98219.63;;;26.21;65.95
25664;BME280;13522;50.018;20.014;2023-07-30T13:52:18;98218.47;;;26.38;65.72
25664;BME280;13522;50.018;20.014;2023-07-30T13:55:31;98225.08;;;26.47;66.45
25664;BME280;13522;50.018;20.014;2023-07-30T13:58:43;98213.42;;;26.52;63.87
25664;BME280;13522;50.018;20.014;2023-07-30T14:01:56;98224.78;;;26.44;68.31
25664;BME280;13522;50.018;20.014;2023-07-30T14:05:10;98212.86;;;26.50;65.86
25664;BME280;13522;50.018;20.014;2023-07-30T14:08:23;98219.63;;;26.47;64.74
25664;BME280;13522;50.018;20.014;2023-07-30T14:11:35;98219.29;;;26.12;63.67
25664;BME280;13522;50.018;20.014;2023-07-30T14:14:49;98231.05;;;25.96;63.23
25664;BME280;13522;50.018;20.014;2023-07-30T14:18:03;98223.60;;;25.87;62.80
25664;BME280;13522;50.018;20.014;2023-07-30T14:21:16;98221.38;;;25.84;62.96
25664;BME280;13522;50.018;20.014;2023-07-30T14:24:28;98217.77;;;25.78;63.60
25664;BME280;13522;50.018;20.014;2023-07-30T14:27:42;98228.92;;;25.76;64.87
25664;BME280;13522;50.018;20.014;2023-07-30T14:30:54;98216.64;;;25.74;63.40
25664;BME280;13522;50.018;20.014;2023-07-30T14:34:07;98218.91;;;25.82;65.28
25664;BME280;13522;50.018;20.014;2023-07-30T14:37:20;98217.08;;;25.66;62.97
25664;BME280;13522;50.018;20.014;2023-07-30T14:40:33;98218.73;;;25.67;64.77
25664;BME280;13522;50.018;20.014;2023-07-30T14:43:45;98211.23;;;25.79;64.51
25664;BME280;13522;50.018;20.014;2023-07-30T14:46:57;98207.91;;;25.72;65.26
25664;BME280;13522;50.018;20.014;2023-07-30T14:50:12;98204.31;;;25.66;63.83
25664;BME280;13522;50.018;20.014;2023-07-30T14:53:24;98203.92;;;25.58;62.43
25664;BME280;13522;50.018;20.014;2023-07-30T14:56:36;98199.13;;;25.65;65.40
25664;BME280;13522;50.018;20.014;2023-07-30T14:59:49;98183.38;;;25.67;64.47
25664;BME280;13522;50.018;20.014;2023-07-30T15:03:01;98191.53;;;25.67;65.72
25664;BME280;13522;50.018;20.014;2023-07-30T15:06:14;98192.78;;;25.59;66.90
25664;BME280;13522;50.018;20.014;2023-07-30T15:09:28;98196.59;;;25.58;68.73
25664;BME280;13522;50.018;20.014;2023-07-30T15:12:41;98192.08;;;25.47;68.58
25664;BME280;13522;50.018;20.014;2023-07-30T15:15:54;98190.55;;;25.35;70.04
25664;BME280;13522;50.018;20.014;2023-07-30T15:19:06;98180.73;;;25.34;69.14
25664;BME280;13522;50.018;20.014;2023-07-30T15:22:19;98179.13;;;25.16;69.41
25664;BME280;13522;50.018;20.014;2023-07-30T15:25:31;98174.80;;;24.99;69.31
25664;BME280;13522;50.018;20.014;2023-07-30T15:28:44;98174.13;;;25.08;69.62
25664;BME280;13522;50.018;20.014;2023-07-30T15:31:56;98177.07;;;25.23;71.09
25664;BME280;13522;50.018;20.014;2023-07-30T15:35:09;98163.05;;;25.31;69.22
25664;BME280;13522;50.018;20.014;2023-07-30T15:38:22;98164.31;;;25.45;68.03
25664;BME280;13522;50.018;20.014;2023-07-30T15:41:34;98159.08;;;25.60;70.05
25664;BME280;13522;50.018;20.014;2023-07-30T15:44:47;98156.97;;;25.67;65.68
25664;BME280;13522;50.018;20.014;2023-07-30T15:47:59;98161.39;;;25.73;69.31
25664;BME280;13522;50.018;20.014;2023-07-30T15:51:12;98151.30;;;25.69;66.31
25664;BME280;13522;50.018;20.014;2023-07-30T15:54:34;98155.16;;;25.73;68.48
25664;BME280;13522;50.018;20.014;2023-07-30T15:57:47;98159.20;;;25.70;69.20
25664;BME280;13522;50.018;20.014;2023-07-30T16:01:04;98163.64;;;25.55;66.95
25664;BME280;13522;50.018;20.014;2023-07-30T16:04:18;98166.38;;;25.38;65.99
25664;BME280;13522;50.018;20.014;2023-07-30T16:07:30;98169.36;;;25.37;66.79
25664;BME280;13522;50.018;20.014;2023-07-30T16:10:43;98175.86;;;25.36;68.26
25664;BME280;13522;50.018;20.014;2023-07-30T16:13:55;98179.84;;;25.28;68.23
25664;BME280;13522;50.018;20.014;2023-07-30T16:17:08;98176.73;;;25.20;71.31
25664;BME280;13522;50.018;20.014;2023-07-30T16:20:21;98180.81;;;25.01;70.30
25664;BME280;13522;50.018;20.014;2023-07-30T16:23:33;98179.50;;;25.03;70.58
25664;BME280;13522;50.018;20.014;2023-07-30T16:26:46;98179.77;;;25.02;70.53
25664;BME280;13522;50.018;20.014;2023-07-30T16:29:58;98171.03;;;25.00;68.54
25664;BME280;13522;50.018;20.014;2023-07-30T16:33:11;98175.80;;;24.92;68.84
25664;BME280;13522;50.018;20.014;2023-07-30T16:36:23;98185.84;;;24.92;71.03
25664;BME280;13522;50.018;20.014;2023-07-30T16:39:35;98193.61;;;24.83;68.53
25664;BME280;13522;50.018;20.014;2023-07-30T16:42:48;98195.75;;;24.81;70.35